createdAt,value
2023-12-09T00:00:35.287Z,8.80
2023-12-09T00:03:02.093Z,6.07
2023-12-09T00:05:28.898Z,6.53
2023-12-09T00:07:55.675Z,8.77
2023-12-09T00:10:22.430Z,6.80
2023-12-09T00:12:49.681Z,6.23
2023-12-09T00:15:16.412Z,5.83
2023-12-09T00:17:43.148Z,8.03
2023-12-09T00:20:10.480Z,5.20
2023-12-09T00:22:37.252Z,6.33
2023-12-09T00:25:05.172Z,5.77
2023-12-09T00:27:32.274Z,6.67
2023-12-09T00:29:59.045Z,7.20
2023-12-09T00:32:26.294Z,6.77
2023-12-09T00:34:53.279Z,5.20
2023-12-09T00:37:20.037Z,5.93
2023-12-09T00:39:46.808Z,6.27
2023-12-09T00:42:13.596Z,4.27
2023-12-09T00:44:40.455Z,6.10
2023-12-09T00:47:07.193Z,5.90
2023-12-09T00:49:33.963Z,5.07
2023-12-09T00:52:00.897Z,8.03
2023-12-09T00:54:27.694Z,6.63
2023-12-09T00:56:54.453Z,6.07
2023-12-09T00:59:21.229Z,3.67
2023-12-09T01:01:47.922Z,3.53
2023-12-09T01:04:15.201Z,5.97
2023-12-09T01:06:42.058Z,6.17
2023-12-09T01:09:08.813Z,5.47
2023-12-09T01:11:35.569Z,3.90
2023-12-09T01:14:02.293Z,4.83
2023-12-09T01:16:29.083Z,4.60
2023-12-09T01:18:55.915Z,4.53
2023-12-09T01:21:22.723Z,7.30
2023-12-09T01:23:49.684Z,7.73
2023-12-09T01:26:16.435Z,6.83
2023-12-09T01:28:43.320Z,5.97
2023-12-09T01:31:10.101Z,5.20
2023-12-09T01:33:38.667Z,7.83
2023-12-09T01:36:06.254Z,5.00
2023-12-09T01:38:33.072Z,9.20
2023-12-09T01:40:59.848Z,5.27
2023-12-09T01:43:26.564Z,3.53
2023-12-09T01:45:55.440Z,3.83
2023-12-09T01:48:23.113Z,6.57
2023-12-09T01:50:50.827Z,2.77
2023-12-09T01:53:17.682Z,5.07
2023-12-09T01:55:44.490Z,6.10
2023-12-09T01:58:12.004Z,5.73
2023-12-09T02:00:40.274Z,4.87
2023-12-09T02:03:07.357Z,6.73
2023-12-09T02:05:34.175Z,7.27
2023-12-09T02:08:00.876Z,4.13
2023-12-09T02:10:28.271Z,4.37
2023-12-09T02:13:20.413Z,5.33
2023-12-09T02:15:53.220Z,5.60
2023-12-09T02:18:20.728Z,6.03
2023-12-09T02:20:47.467Z,6.27
2023-12-09T02:23:14.322Z,3.67
2023-12-09T02:25:41.424Z,6.77
2023-12-09T02:28:15.241Z,3.83
2023-12-09T02:31:01.025Z,4.23
2023-12-09T02:33:29.106Z,8.63
2023-12-09T02:35:56.654Z,7.03
2023-12-09T02:38:24.641Z,4.60
2023-12-09T02:40:51.970Z,4.13
2023-12-09T02:43:19.144Z,6.00
2023-12-09T02:45:47.317Z,5.53
2023-12-09T02:48:14.422Z,6.07
2023-12-09T02:50:41.683Z,5.73
2023-12-09T02:53:08.456Z,7.50
2023-12-09T02:55:35.208Z,4.23
2023-12-09T02:58:01.985Z,7.43
2023-12-09T03:00:28.859Z,7.67
2023-12-09T03:02:55.722Z,4.20
2023-12-09T03:05:22.569Z,4.87
2023-12-09T03:07:49.427Z,5.53
2023-12-09T03:10:16.166Z,4.13
2023-12-09T03:12:42.920Z,5.90
2023-12-09T03:15:10.469Z,8.67
2023-12-09T03:17:38.086Z,6.73
2023-12-09T03:20:09.816Z,4.33
2023-12-09T03:22:36.708Z,6.40
2023-12-09T03:25:03.674Z,4.77
2023-12-09T03:27:30.929Z,5.67
2023-12-09T03:29:57.748Z,2.73
2023-12-09T03:32:24.673Z,5.77
2023-12-09T03:34:51.544Z,3.70
2023-12-09T03:37:18.301Z,5.53
2023-12-09T03:39:45.038Z,5.57
2023-12-09T03:42:11.777Z,11.47
2023-12-09T03:44:38.529Z,5.73
2023-12-09T03:47:11.955Z,4.07
2023-12-09T03:49:45.577Z,5.67
2023-12-09T03:52:13.608Z,7.23
2023-12-09T03:54:41.399Z,2.70
2023-12-09T03:57:08.206Z,5.33
2023-12-09T03:59:35.126Z,4.60
2023-12-09T04:02:01.848Z,5.70
2023-12-09T04:04:28.777Z,5.77
2023-12-09T04:06:56.171Z,7.70
2023-12-09T04:09:23.780Z,6.60
2023-12-09T04:11:50.583Z,4.67
2023-12-09T04:14:17.355Z,7.47
2023-12-09T04:16:44.455Z,5.67
2023-12-09T04:19:11.320Z,4.23
2023-12-09T04:21:38.147Z,5.67
2023-12-09T04:24:05.182Z,4.13
2023-12-09T04:26:31.937Z,4.93
2023-12-09T04:28:58.956Z,6.93
2023-12-09T04:31:25.645Z,9.80
2023-12-09T04:33:52.443Z,5.70
2023-12-09T04:36:19.473Z,5.57
2023-12-09T04:38:46.214Z,4.90
2023-12-09T04:41:13.067Z,5.27
2023-12-09T04:43:40.182Z,4.67
2023-12-09T04:46:07.359Z,4.67
2023-12-09T04:48:34.238Z,4.57
2023-12-09T04:51:01.128Z,3.73
2023-12-09T04:53:27.921Z,3.57
2023-12-09T04:55:54.763Z,5.37
2023-12-09T04:58:21.489Z,5.37
2023-12-09T05:00:48.232Z,6.37
2023-12-09T05:03:15.114Z,4.30
2023-12-09T05:05:41.954Z,4.40
2023-12-09T05:08:09.575Z,4.33
2023-12-09T05:10:36.401Z,3.30
2023-12-09T05:13:03.160Z,4.87
2023-12-09T05:15:32.772Z,5.97
2023-12-09T05:18:00.524Z,3.30
2023-12-09T05:20:27.348Z,5.63
2023-12-09T05:22:54.109Z,7.03
2023-12-09T05:25:20.947Z,4.57
2023-12-09T05:27:47.722Z,5.97
2023-12-09T05:30:14.501Z,5.50
2023-12-09T05:32:41.433Z,4.80
2023-12-09T05:35:08.545Z,6.10
2023-12-09T05:37:35.487Z,6.07
2023-12-09T05:40:02.251Z,7.00
2023-12-09T05:42:29.479Z,5.97
2023-12-09T05:44:56.591Z,8.03
2023-12-09T05:47:24.343Z,5.07
2023-12-09T05:49:51.166Z,5.67
2023-12-09T05:52:18.631Z,6.27
2023-12-09T05:54:45.456Z,3.47
2023-12-09T05:57:12.226Z,4.90
2023-12-09T05:59:39.013Z,6.77
2023-12-09T06:02:05.813Z,7.67
2023-12-09T06:04:32.661Z,3.33
2023-12-09T06:06:59.582Z,4.23
2023-12-09T06:09:26.442Z,5.03
2023-12-09T06:11:53.224Z,4.60
2023-12-09T06:14:20.021Z,4.40
2023-12-09T06:16:46.778Z,4.77
2023-12-09T06:19:13.621Z,4.03
2023-12-09T06:21:40.474Z,4.20
2023-12-09T06:24:07.319Z,3.60
2023-12-09T06:26:34.079Z,6.27
2023-12-09T06:29:00.865Z,4.53
2023-12-09T06:31:27.640Z,3.90
2023-12-09T06:33:54.495Z,6.07
2023-12-09T06:36:21.322Z,5.43
2023-12-09T06:38:48.059Z,6.07
2023-12-09T06:41:15.071Z,4.63
2023-12-09T06:43:42.134Z,4.13
2023-12-09T06:46:09.083Z,2.77
2023-12-09T06:48:38.785Z,5.97
2023-12-09T06:51:08.555Z,3.50
2023-12-09T06:53:39.129Z,6.67
2023-12-09T06:56:09.306Z,3.63
2023-12-09T06:58:37.852Z,4.77
2023-12-09T07:01:04.870Z,4.17
2023-12-09T07:03:39.345Z,3.73
2023-12-09T07:06:06.364Z,5.10
2023-12-09T07:08:33.097Z,5.23
2023-12-09T07:11:00.948Z,3.10
2023-12-09T07:13:27.725Z,2.67
2023-12-09T07:15:54.575Z,3.77
2023-12-09T07:18:21.468Z,4.20
2023-12-09T07:20:48.241Z,3.07
2023-12-09T07:23:15.581Z,3.60
2023-12-09T07:25:42.344Z,3.63
2023-12-09T07:28:09.145Z,3.23
2023-12-09T07:30:36.253Z,4.53
2023-12-09T07:33:03.235Z,5.43
2023-12-09T07:35:30.062Z,3.73
2023-12-09T07:37:56.835Z,3.03
2023-12-09T07:40:23.719Z,3.83
2023-12-09T07:42:50.921Z,3.60
2023-12-09T07:45:17.755Z,2.73
2023-12-09T07:47:44.525Z,4.43
2023-12-09T07:50:11.863Z,3.90
2023-12-09T07:52:38.634Z,2.33
2023-12-09T07:55:06.212Z,5.53
2023-12-09T07:57:32.939Z,1.70
2023-12-09T07:59:59.798Z,4.40
2023-12-09T08:02:26.771Z,2.57
2023-12-09T08:04:53.683Z,2.10
2023-12-09T08:07:20.400Z,2.10
2023-12-09T08:09:47.142Z,2.57
2023-12-09T08:12:14.347Z,2.43
2023-12-09T08:14:41.083Z,3.20
2023-12-09T08:17:07.846Z,1.70
2023-12-09T08:19:34.787Z,2.77
2023-12-09T08:22:01.766Z,2.47
2023-12-09T08:24:29.347Z,2.50
2023-12-09T08:26:56.458Z,4.50
2023-12-09T08:29:24.258Z,2.23
2023-12-09T08:31:52.169Z,4.53
2023-12-09T08:34:19.290Z,2.23
2023-12-09T08:36:46.582Z,2.93
2023-12-09T08:39:13.478Z,2.83
2023-12-09T08:41:40.366Z,1.57
2023-12-09T08:44:08.077Z,2.83
2023-12-09T08:46:34.844Z,2.63
2023-12-09T08:49:01.729Z,6.33
2023-12-09T08:51:28.632Z,2.87
2023-12-09T08:53:55.365Z,1.90
2023-12-09T08:56:22.126Z,2.60
2023-12-09T08:58:48.883Z,5.20
2023-12-09T09:01:15.614Z,3.77
2023-12-09T09:03:42.766Z,3.00
2023-12-09T09:06:09.954Z,2.77
2023-12-09T09:08:36.726Z,3.43
2023-12-09T09:11:05.200Z,3.30
2023-12-09T09:13:31.985Z,3.67
2023-12-09T09:15:58.809Z,2.67
2023-12-09T09:18:25.811Z,3.40
2023-12-09T09:20:58.558Z,4.97
2023-12-09T09:23:25.408Z,2.27
2023-12-09T09:25:52.823Z,2.83
2023-12-09T09:28:19.557Z,2.03
2023-12-09T09:30:46.445Z,3.93
2023-12-09T09:33:13.307Z,2.90
2023-12-09T09:35:40.183Z,3.33
2023-12-09T09:38:06.940Z,4.03
2023-12-09T09:40:33.861Z,2.53
2023-12-09T09:43:08.147Z,5.13
2023-12-09T09:45:35.063Z,4.00
2023-12-09T09:48:06.367Z,5.83
2023-12-09T09:50:43.181Z,2.93
2023-12-09T09:53:13.331Z,3.37
2023-12-09T09:55:41.766Z,3.60
2023-12-09T09:58:08.929Z,4.63
2023-12-09T10:00:35.850Z,4.47
2023-12-09T10:03:04.458Z,3.60
2023-12-09T10:05:31.582Z,4.30
2023-12-09T10:07:58.411Z,3.20
2023-12-09T10:10:25.413Z,3.03
2023-12-09T10:12:52.232Z,4.83
2023-12-09T10:15:19.544Z,2.97
2023-12-09T10:17:46.621Z,5.67
2023-12-09T10:20:13.707Z,3.67
2023-12-09T10:22:41.567Z,3.53
2023-12-09T10:25:09.026Z,4.57
2023-12-09T10:27:36.004Z,2.57
2023-12-09T10:30:02.907Z,5.53
2023-12-09T10:32:30.324Z,4.00
2023-12-09T10:34:59.020Z,4.43
2023-12-09T10:37:28.103Z,3.47
2023-12-09T10:39:54.854Z,3.33
2023-12-09T10:42:24.220Z,3.20
2023-12-09T10:44:51.074Z,5.70
2023-12-09T10:47:18.109Z,5.80
2023-12-09T10:49:45.010Z,3.27
2023-12-09T10:52:11.834Z,5.60
2023-12-09T10:54:38.721Z,3.77
2023-12-09T10:57:05.623Z,3.80
2023-12-09T10:59:33.962Z,3.97
2023-12-09T11:02:02.066Z,4.87
2023-12-09T11:04:29.876Z,4.10
2023-12-09T11:07:00.256Z,4.40
2023-12-09T11:09:27.354Z,7.60
2023-12-09T11:11:54.085Z,2.63
2023-12-09T11:14:26.486Z,3.50
2023-12-09T11:16:53.604Z,4.73
2023-12-09T11:19:23.948Z,3.60
2023-12-09T11:21:51.129Z,5.93
2023-12-09T11:24:19.820Z,4.60
2023-12-09T11:26:47.601Z,5.27
2023-12-09T11:29:18.575Z,5.70
2023-12-09T11:31:51.906Z,4.83
2023-12-09T11:34:22.822Z,6.33
2023-12-09T11:36:54.003Z,5.40
2023-12-09T11:39:26.834Z,3.40
2023-12-09T11:41:54.343Z,3.10
2023-12-09T11:44:21.117Z,6.23
2023-12-09T11:46:48.302Z,4.80
2023-12-09T11:49:15.750Z,6.93
2023-12-09T11:51:42.840Z,4.77
2023-12-09T11:54:10.936Z,3.30
2023-12-09T11:56:40.120Z,4.07
2023-12-09T11:59:07.540Z,5.67
2023-12-09T12:01:37.547Z,3.03
2023-12-09T12:04:05.183Z,5.73
2023-12-09T12:06:32.778Z,5.53
2023-12-09T12:08:59.796Z,5.97
2023-12-09T12:11:26.710Z,7.73
2023-12-09T12:13:54.731Z,7.33
2023-12-09T12:16:21.704Z,3.87
2023-12-09T12:18:49.625Z,7.37
2023-12-09T12:21:17.023Z,4.37
2023-12-09T12:23:44.010Z,5.27
2023-12-09T12:26:12.800Z,5.33
2023-12-09T12:28:40.072Z,8.37
2023-12-09T12:31:08.113Z,5.07
2023-12-09T12:33:35.322Z,5.10
2023-12-09T12:36:02.629Z,7.67
2023-12-09T12:38:29.797Z,6.87
2023-12-09T12:40:58.554Z,3.23
2023-12-09T12:43:29.998Z,7.70
2023-12-09T12:45:59.071Z,3.93
2023-12-09T12:48:26.203Z,3.30
2023-12-09T12:50:54.209Z,4.30
2023-12-09T12:53:21.801Z,3.87
2023-12-09T12:55:49.257Z,6.93
2023-12-09T12:58:16.988Z,3.30
2023-12-09T13:00:44.098Z,2.83
2023-12-09T13:03:11.023Z,6.00
2023-12-09T13:05:37.968Z,6.83
2023-12-09T13:08:06.158Z,4.97
2023-12-09T13:10:33.318Z,4.60
2023-12-09T13:13:00.325Z,4.50
2023-12-09T13:15:27.376Z,3.07
2023-12-09T13:18:02.597Z,8.57
2023-12-09T13:20:30.602Z,1.90
2023-12-09T13:22:58.109Z,3.37
2023-12-09T13:25:25.070Z,3.20
2023-12-09T13:27:51.956Z,5.47
2023-12-09T13:30:18.976Z,3.90
2023-12-09T13:32:47.110Z,3.70
2023-12-09T13:35:16.178Z,4.27
2023-12-09T13:37:44.590Z,2.97
2023-12-09T13:40:13.314Z,3.83
2023-12-09T13:42:40.404Z,4.53
2023-12-09T13:45:08.382Z,4.27
2023-12-09T13:47:35.369Z,4.47
2023-12-09T13:50:02.282Z,2.33
2023-12-09T13:52:31.627Z,2.33
2023-12-09T13:54:59.760Z,3.57
2023-12-09T13:57:26.624Z,3.50
2023-12-09T13:59:53.464Z,4.97
2023-12-09T14:02:20.521Z,3.17
2023-12-09T14:04:47.589Z,2.63
2023-12-09T14:07:15.208Z,7.17
2023-12-09T14:09:42.177Z,2.53
2023-12-09T14:12:09.586Z,3.13
2023-12-09T14:14:36.497Z,6.37
2023-12-09T14:17:03.350Z,4.23
2023-12-09T14:19:32.924Z,6.93
2023-12-09T14:22:02.965Z,4.53
2023-12-09T14:24:29.999Z,4.50
2023-12-09T14:26:57.005Z,4.70
2023-12-09T14:29:23.789Z,6.57
2023-12-09T14:31:50.642Z,4.53
2023-12-09T14:34:17.777Z,4.47
2023-12-09T14:36:44.906Z,5.97
2023-12-09T14:39:12.225Z,3.10
2023-12-09T14:41:41.242Z,6.43
2023-12-09T14:44:09.306Z,3.60
2023-12-09T14:46:36.712Z,3.73
2023-12-09T14:49:04.926Z,3.07
2023-12-09T14:54:02.298Z,2.20
2023-12-09T14:56:29.419Z,3.70
2023-12-09T14:58:56.330Z,3.60
2023-12-09T15:01:23.141Z,3.00
2023-12-09T15:03:50.148Z,1.77
2023-12-09T15:06:17.032Z,2.03
2023-12-09T15:08:43.857Z,3.07
2023-12-09T15:11:10.617Z,2.93
2023-12-09T15:13:37.375Z,3.33
2023-12-09T15:16:05.003Z,1.70
2023-12-09T15:18:32.028Z,2.30
2023-12-09T15:20:59.119Z,1.80
2023-12-09T15:23:30.463Z,3.57
2023-12-09T15:25:57.248Z,2.83
2023-12-09T15:28:28.400Z,2.20
2023-12-09T15:30:55.296Z,1.30
2023-12-09T15:33:22.374Z,2.13
2023-12-09T15:35:49.247Z,2.53
2023-12-09T15:38:16.127Z,1.10
2023-12-09T15:40:42.977Z,1.67
2023-12-09T15:43:09.727Z,2.23
2023-12-09T15:45:36.548Z,1.63
2023-12-09T15:48:05.007Z,2.70
2023-12-09T15:50:32.792Z,1.77
2023-12-09T15:53:00.551Z,3.03
2023-12-09T15:55:27.402Z,1.53
2023-12-09T15:57:59.128Z,1.10
2023-12-09T16:00:27.064Z,1.27
2023-12-09T16:02:54.101Z,1.10
2023-12-09T16:05:21.628Z,1.40
2023-12-09T16:07:48.919Z,1.47
2023-12-09T16:10:16.222Z,0.93
2023-12-09T16:12:46.827Z,2.20
2023-12-09T16:15:14.831Z,1.30
2023-12-09T16:17:44.748Z,1.67
2023-12-09T16:20:13.854Z,1.37
2023-12-09T16:22:40.791Z,1.50
2023-12-09T16:25:08.443Z,0.90
2023-12-09T16:27:36.003Z,1.30
2023-12-09T16:30:04.907Z,1.37
2023-12-09T16:32:32.818Z,1.17
2023-12-09T16:35:00.266Z,1.50
2023-12-09T16:37:29.128Z,1.20
2023-12-09T16:39:57.306Z,2.27
2023-12-09T16:42:24.262Z,1.03
2023-12-09T16:44:51.505Z,1.17
2023-12-09T16:47:18.614Z,2.03
2023-12-09T16:49:45.895Z,1.77
2023-12-09T16:52:13.770Z,1.50
2023-12-09T16:54:40.591Z,1.17
2023-12-09T16:57:07.518Z,1.00
2023-12-09T16:59:34.452Z,0.90
2023-12-09T17:02:01.339Z,1.00
2023-12-09T17:04:28.548Z,1.17
2023-12-09T17:06:55.623Z,3.07
2023-12-09T17:09:23.058Z,1.60
2023-12-09T17:12:39.731Z,2.63
2023-12-09T17:14:40.636Z,1.70
2023-12-09T17:17:08.623Z,0.93
2023-12-09T17:19:35.627Z,1.07
2023-12-09T17:22:02.744Z,1.17
2023-12-09T17:24:30.613Z,2.00
2023-12-09T17:26:57.496Z,2.57
2023-12-09T17:29:24.501Z,2.37
2023-12-09T17:31:51.491Z,2.27
2023-12-09T17:34:22.103Z,2.03
2023-12-09T17:36:49.074Z,1.30
2023-12-09T17:39:17.625Z,2.20
2023-12-09T17:41:45.050Z,2.20
2023-12-09T17:44:13.878Z,1.80
2023-12-09T17:46:41.074Z,2.27
2023-12-09T17:49:08.042Z,2.90
2023-12-09T17:51:34.945Z,2.20
2023-12-09T17:54:03.262Z,2.27
2023-12-09T17:56:30.202Z,1.90
2023-12-09T17:58:57.056Z,1.47
2023-12-09T18:01:25.210Z,1.70
2023-12-09T18:03:52.169Z,1.57
2023-12-09T18:06:19.621Z,1.27
2023-12-09T18:08:46.452Z,1.83
2023-12-09T18:11:13.200Z,3.10
2023-12-09T18:13:40.057Z,2.53
2023-12-09T18:16:07.568Z,2.33
2023-12-09T18:18:34.438Z,1.77
2023-12-09T18:21:01.347Z,2.17
2023-12-09T18:23:28.207Z,2.13
2023-12-09T18:25:55.271Z,2.17
2023-12-09T18:28:22.206Z,1.93
2023-12-09T18:30:49.175Z,3.40
2023-12-09T18:33:16.245Z,2.60
2023-12-09T18:35:43.116Z,2.37
2023-12-09T18:38:09.988Z,3.63
2023-12-09T18:40:36.843Z,2.90
2023-12-09T18:43:03.775Z,2.30
2023-12-09T18:45:30.630Z,2.60
2023-12-09T18:47:57.660Z,2.07
2023-12-09T18:50:24.681Z,4.03
2023-12-09T18:52:52.961Z,2.13
2023-12-09T18:55:20.042Z,4.53
2023-12-09T18:57:54.838Z,3.93
2023-12-09T19:00:21.983Z,2.90
2023-12-09T19:02:51.730Z,3.23
2023-12-09T19:05:18.812Z,4.60
2023-12-09T19:07:48.704Z,4.37
2023-12-09T19:10:16.800Z,6.67
2023-12-09T19:12:43.636Z,4.27
2023-12-09T19:15:10.858Z,4.33
2023-12-09T19:17:37.763Z,3.33
2023-12-09T19:20:05.600Z,3.23
2023-12-09T19:22:32.415Z,3.57
2023-12-09T19:24:59.294Z,4.10
2023-12-09T19:27:26.888Z,3.50
2023-12-09T19:29:53.874Z,5.53
2023-12-09T19:32:20.721Z,6.70
2023-12-09T19:34:50.412Z,4.10
2023-12-09T19:37:17.227Z,5.93
2023-12-09T19:39:44.132Z,7.80
2023-12-09T19:42:12.065Z,5.60
2023-12-09T19:44:39.055Z,5.67
2023-12-09T19:47:07.285Z,4.43
2023-12-09T19:49:34.257Z,3.80
2023-12-09T19:52:01.170Z,4.23
2023-12-09T19:54:36.848Z,4.60
2023-12-09T19:57:05.093Z,5.27
2023-12-09T19:59:32.640Z,5.40
2023-12-09T20:01:59.552Z,3.33
2023-12-09T20:04:27.181Z,4.00
2023-12-09T20:06:56.991Z,4.47
2023-12-09T20:09:26.818Z,4.53
2023-12-09T20:11:53.914Z,4.43
2023-12-09T20:14:20.788Z,6.50
2023-12-09T20:16:47.754Z,6.60
2023-12-09T20:19:14.793Z,4.33
2023-12-09T20:21:41.685Z,5.40
2023-12-09T20:24:08.915Z,7.17
2023-12-09T20:26:35.833Z,7.00
2023-12-09T20:29:02.854Z,7.13
2023-12-09T20:31:29.827Z,4.80
2023-12-09T20:33:56.855Z,6.00
2023-12-09T20:36:27.789Z,4.67
2023-12-09T20:38:54.683Z,5.70
2023-12-09T20:41:21.529Z,8.23
2023-12-09T20:43:50.761Z,4.37
2023-12-09T20:46:18.492Z,10.27
2023-12-09T20:48:45.437Z,5.67
2023-12-09T20:51:12.388Z,13.57
2023-12-09T20:53:39.239Z,9.30
2023-12-09T20:56:06.630Z,13.63
2023-12-09T20:58:33.548Z,10.17
2023-12-09T21:01:00.573Z,16.33
2023-12-09T21:03:27.543Z,9.50
2023-12-09T21:05:54.455Z,14.67
2023-12-09T21:08:21.377Z,6.93
2023-12-09T21:10:48.171Z,6.33
2023-12-09T21:13:14.978Z,8.27
2023-12-09T21:15:42.387Z,8.47
2023-12-09T21:18:10.391Z,9.17
2023-12-09T21:20:37.599Z,9.00
2023-12-09T21:23:04.458Z,9.37
2023-12-09T21:25:31.359Z,9.77
2023-12-09T21:27:58.286Z,13.67
2023-12-09T21:30:25.342Z,14.07
2023-12-09T21:32:52.169Z,12.90
2023-12-09T21:35:19.103Z,8.73
2023-12-09T21:37:46.143Z,10.70
2023-12-09T21:40:13.294Z,12.13
2023-12-09T21:42:40.107Z,11.07
2023-12-09T21:45:07.349Z,8.17
2023-12-09T21:47:36.590Z,13.73
2023-12-09T21:50:04.803Z,9.20
2023-12-09T21:52:32.374Z,10.10
2023-12-09T21:54:59.309Z,8.73
2023-12-09T21:57:26.639Z,11.80
2023-12-09T21:59:53.477Z,11.30
2023-12-09T22:02:20.470Z,8.07
2023-12-09T22:04:47.531Z,10.30
2023-12-09T22:07:14.342Z,6.43
2023-12-09T22:09:41.461Z,10.83
2023-12-09T22:12:08.583Z,15.30
2023-12-09T22:14:35.412Z,10.70
2023-12-09T22:17:04.330Z,8.20
2023-12-09T22:19:31.259Z,7.93
2023-12-09T22:21:58.133Z,12.33
2023-12-09T22:24:24.961Z,11.43
2023-12-09T22:26:51.813Z,15.43
2023-12-09T22:29:18.709Z,13.23
2023-12-09T22:31:45.748Z,7.20
2023-12-09T22:34:12.769Z,8.93
2023-12-09T22:36:40.199Z,7.67
2023-12-09T22:39:13.818Z,12.80
2023-12-09T22:41:40.964Z,15.40
2023-12-09T22:44:07.786Z,11.47
2023-12-09T22:46:34.779Z,14.30
2023-12-09T22:49:01.813Z,13.77
2023-12-09T22:51:29.556Z,10.30
2023-12-09T22:53:56.393Z,14.67
2023-12-09T22:56:24.844Z,14.40
2023-12-09T22:58:53.497Z,14.60
2023-12-09T23:01:34.879Z,12.67
2023-12-09T23:04:22.330Z,8.97
2023-12-09T23:06:49.248Z,8.90
2023-12-09T23:09:16.172Z,9.83
2023-12-09T23:11:43.068Z,9.87
2023-12-09T23:14:10.654Z,13.90
2023-12-09T23:16:37.485Z,19.90
2023-12-09T23:19:04.566Z,9.63
2023-12-09T23:21:31.494Z,13.93
2023-12-09T23:23:58.320Z,15.70
2023-12-09T23:26:25.096Z,10.10
2023-12-09T23:28:51.932Z,16.87
2023-12-09T23:31:25.329Z,12.87
2023-12-09T23:33:58.079Z,11.90
2023-12-09T23:36:25.119Z,14.20
2023-12-09T23:38:52.049Z,14.90
2023-12-09T23:41:18.846Z,13.43
2023-12-09T23:43:45.748Z,11.97
2023-12-09T23:46:17.750Z,12.67
2023-12-09T23:48:44.744Z,15.43
2023-12-09T23:51:12.179Z,12.63
2023-12-09T23:53:39.071Z,9.90
2023-12-09T23:56:07.394Z,10.20
2023-12-09T23:58:34.592Z,12.23
